createdAt,value
2019-05-25T00:00:37.413Z,15.64
2019-05-25T00:04:58.147Z,15.60
2019-05-25T00:09:18.154Z,15.51
2019-05-25T00:13:38.823Z,15.45
2019-05-25T00:17:59.410Z,15.25
2019-05-25T00:22:20.177Z,15.26
2019-05-25T00:26:40.953Z,15.23
2019-05-25T00:31:01.616Z,15.18
2019-05-25T00:35:22.029Z,15.07
2019-05-25T00:39:42.549Z,15.04
2019-05-25T00:44:02.923Z,14.98
2019-05-25T00:48:23.254Z,14.96
2019-05-25T00:52:43.783Z,14.86
2019-05-25T00:57:04.536Z,14.79
2019-05-25T01:01:24.769Z,14.62
2019-05-25T01:05:45.890Z,14.36
2019-05-25T01:10:06.707Z,13.63
2019-05-25T01:14:27.379Z,13.98
2019-05-25T01:18:47.471Z,13.69
2019-05-25T01:23:07.930Z,13.97
2019-05-25T01:27:28.142Z,13.93
2019-05-25T01:31:48.875Z,13.94
2019-05-25T01:36:09.232Z,13.79
2019-05-25T01:40:29.340Z,13.73
2019-05-25T01:44:49.456Z,13.89
2019-05-25T01:49:09.919Z,13.70
2019-05-25T01:53:30.577Z,13.54
2019-05-25T01:57:50.681Z,13.47
2019-05-25T02:02:11.602Z,13.41
2019-05-25T02:06:32.291Z,13.37
2019-05-25T02:10:52.807Z,13.28
2019-05-25T02:15:13.199Z,13.20
2019-05-25T02:19:33.804Z,13.09
2019-05-25T02:23:54.567Z,13.04
2019-05-25T02:28:15.029Z,12.88
2019-05-25T02:32:35.578Z,12.81
2019-05-25T02:36:56.812Z,12.82
2019-05-25T02:41:17.618Z,12.71
2019-05-25T02:45:38.300Z,11.46
2019-05-25T02:49:58.591Z,11.46
2019-05-25T02:54:18.735Z,11.30
2019-05-25T02:58:39.425Z,10.95
2019-05-25T03:03:00.569Z,10.97
2019-05-25T03:07:22.198Z,11.70
2019-05-25T03:11:42.717Z,11.70
2019-05-25T03:16:03.160Z,12.20
2019-05-25T03:20:23.222Z,12.27
2019-05-25T03:24:43.281Z,12.33
2019-05-25T03:29:03.709Z,12.31
2019-05-25T03:33:23.811Z,12.28
2019-05-25T03:37:44.226Z,12.24
2019-05-25T03:42:04.597Z,12.37
2019-05-25T03:46:25.211Z,12.25
2019-05-25T03:50:46.034Z,12.25
2019-05-25T03:55:06.347Z,12.23
2019-05-25T03:59:27.089Z,12.23
2019-05-25T04:03:47.843Z,12.12
2019-05-25T04:08:08.380Z,12.13
2019-05-25T04:12:28.632Z,12.07
2019-05-25T04:16:49.064Z,12.03
2019-05-25T04:21:09.480Z,11.96
2019-05-25T04:25:29.493Z,11.88
2019-05-25T04:29:49.652Z,11.89
2019-05-25T04:34:10.203Z,11.89
2019-05-25T04:38:30.382Z,11.95
2019-05-25T04:42:50.478Z,11.95
2019-05-25T04:47:25.894Z,11.98
2019-05-25T04:51:33.174Z,12.02
2019-05-25T04:55:53.313Z,11.69
2019-05-25T05:00:14.164Z,11.69
2019-05-25T05:04:34.763Z,11.70
2019-05-25T05:08:55.318Z,11.70
2019-05-25T05:13:15.804Z,12.09
2019-05-25T05:17:36.087Z,11.76
2019-05-25T05:21:56.158Z,12.19
2019-05-25T05:26:16.358Z,12.01
2019-05-25T05:30:36.515Z,12.22
2019-05-25T05:34:57.096Z,12.50
2019-05-25T05:39:18.420Z,12.93
2019-05-25T05:43:39.850Z,12.93
2019-05-25T05:48:00.961Z,12.96
2019-05-25T05:52:23.379Z,13.32
2019-05-25T05:56:43.836Z,13.32
2019-05-25T06:01:04.681Z,13.69
2019-05-25T06:05:25.035Z,13.54
2019-05-25T06:09:45.636Z,13.83
2019-05-25T06:14:06.906Z,13.43
2019-05-25T06:18:27.568Z,14.03
2019-05-25T06:22:48.241Z,14.50
2019-05-25T06:27:09.063Z,14.69
2019-05-25T06:31:29.364Z,14.87
2019-05-25T06:35:49.621Z,14.85
2019-05-25T06:40:10.780Z,14.18
2019-05-25T06:44:31.530Z,14.23
2019-05-25T06:48:52.281Z,14.32
2019-05-25T06:53:12.557Z,14.51
2019-05-25T06:57:42.713Z,14.46
2019-05-25T07:01:55.195Z,14.72
2019-05-25T07:06:16.224Z,15.13
2019-05-25T07:10:36.326Z,15.36
2019-05-25T07:14:57.275Z,15.58
2019-05-25T07:19:17.943Z,15.38
2019-05-25T07:23:38.416Z,14.89
2019-05-25T07:28:00.438Z,14.47
2019-05-25T07:32:21.055Z,14.31
2019-05-25T07:36:41.636Z,14.79
2019-05-25T07:41:02.563Z,15.04
2019-05-25T07:45:22.789Z,15.04
2019-05-25T07:49:43.585Z,15.33
2019-05-25T07:54:04.056Z,15.09
2019-05-25T07:58:24.821Z,15.85
2019-05-25T08:02:44.975Z,16.38
2019-05-25T08:07:06.037Z,16.19
2019-05-25T08:11:26.327Z,16.48
2019-05-25T08:15:47.185Z,15.98
2019-05-25T08:20:07.440Z,16.57
2019-05-25T08:24:28.032Z,15.93
2019-05-25T08:28:48.705Z,15.99
2019-05-25T08:33:08.991Z,16.24
2019-05-25T08:37:29.718Z,16.19
2019-05-25T08:41:50.225Z,16.26
2019-05-25T08:46:10.724Z,16.39
2019-05-25T08:50:38.303Z,16.84
2019-05-25T08:54:54.184Z,15.66
2019-05-25T08:59:15.080Z,15.76
2019-05-25T09:03:36.093Z,16.14
2019-05-25T09:07:56.503Z,16.65
2019-05-25T09:12:16.807Z,16.80
2019-05-25T09:16:37.092Z,16.67
2019-05-25T09:20:57.605Z,16.62
2019-05-25T09:25:18.375Z,17.35
2019-05-25T09:29:38.762Z,17.52
2019-05-25T09:33:59.298Z,17.44
2019-05-25T09:38:20.632Z,16.34
2019-05-25T09:42:41.097Z,17.06
2019-05-25T09:47:01.237Z,16.82
2019-05-25T09:51:22.475Z,17.14
2019-05-25T09:55:42.637Z,16.43
2019-05-25T10:00:04.959Z,16.57
2019-05-25T10:04:25.114Z,17.39
2019-05-25T10:08:45.130Z,18.07
2019-05-25T10:13:05.333Z,18.16
2019-05-25T10:17:26.632Z,17.15
2019-05-25T10:21:47.064Z,17.57
2019-05-25T10:26:07.744Z,16.79
2019-05-25T10:30:28.166Z,17.38
2019-05-25T10:34:48.897Z,17.96
2019-05-25T10:39:09.372Z,17.86
2019-05-25T10:43:30.483Z,18.23
2019-05-25T10:47:51.139Z,17.28
2019-05-25T10:52:12.174Z,17.76
2019-05-25T10:56:32.603Z,17.97
2019-05-25T11:00:53.131Z,17.39
2019-05-25T11:05:16.161Z,17.35
2019-05-25T11:09:36.841Z,17.53
2019-05-25T11:13:57.862Z,17.89
2019-05-25T11:18:20.810Z,18.61
2019-05-25T11:22:41.767Z,17.90
2019-05-25T11:27:02.939Z,18.30
2019-05-25T11:31:24.393Z,17.72
2019-05-25T11:35:45.417Z,18.43
2019-05-25T11:40:07.810Z,17.34
2019-05-25T11:44:28.503Z,18.02
2019-05-25T11:48:49.124Z,18.79
2019-05-25T11:53:09.306Z,18.83
2019-05-25T11:57:30.556Z,18.42
2019-05-25T12:01:51.867Z,19.58
2019-05-25T12:06:12.706Z,18.35
2019-05-25T12:10:33.202Z,19.28
2019-05-25T12:14:54.359Z,18.92
2019-05-25T12:19:15.179Z,19.46
2019-05-25T12:23:36.483Z,18.81
2019-05-25T12:27:57.125Z,19.07
2019-05-25T12:32:17.737Z,19.66
2019-05-25T12:36:38.772Z,20.51
2019-05-25T12:40:59.733Z,19.91
2019-05-25T12:45:22.418Z,19.10
2019-05-25T12:49:50.638Z,20.08
2019-05-25T12:54:05.877Z,20.30
2019-05-25T12:58:25.958Z,18.36
2019-05-25T13:02:46.595Z,19.19
2019-05-25T13:07:07.621Z,19.91
2019-05-25T13:11:28.580Z,19.05
2019-05-25T13:15:49.700Z,19.78
2019-05-25T13:20:10.240Z,20.51
2019-05-25T13:24:30.479Z,21.14
2019-05-25T13:28:51.787Z,20.24
2019-05-25T13:33:12.104Z,19.08
2019-05-25T13:37:33.140Z,18.65
2019-05-25T13:41:53.783Z,18.87
2019-05-25T13:46:14.747Z,19.39
2019-05-25T13:50:35.162Z,19.58
2019-05-25T13:54:55.750Z,20.42
2019-05-25T13:59:16.314Z,20.42
2019-05-25T14:03:36.995Z,19.94
2019-05-25T14:07:57.778Z,19.92
2019-05-25T14:12:19.449Z,19.33
2019-05-25T14:16:43.665Z,20.53
2019-05-25T14:21:04.437Z,20.28
2019-05-25T14:25:25.069Z,20.44
2019-05-25T14:29:45.946Z,19.61
2019-05-25T14:34:06.584Z,20.25
2019-05-25T14:38:26.972Z,20.41
2019-05-25T14:42:47.649Z,20.18
2019-05-25T14:47:08.241Z,20.24
2019-05-25T14:51:29.241Z,20.15
2019-05-25T14:55:50.057Z,20.97
2019-05-25T15:00:10.731Z,20.01
2019-05-25T15:04:32.166Z,20.63
2019-05-25T15:08:52.738Z,20.33
2019-05-25T15:13:13.913Z,20.15
2019-05-25T15:17:37.308Z,19.92
2019-05-25T15:21:57.359Z,20.38
2019-05-25T15:26:18.618Z,20.00
2019-05-25T15:30:39.632Z,20.29
2019-05-25T15:35:00.017Z,19.85
2019-05-25T15:39:21.148Z,20.29
2019-05-25T15:43:41.609Z,20.55
2019-05-25T15:48:02.203Z,20.85
2019-05-25T15:52:23.194Z,21.05
2019-05-25T15:56:43.354Z,21.43
2019-05-25T16:01:03.751Z,21.48
2019-05-25T16:05:24.398Z,21.86
2019-05-25T16:09:45.537Z,21.45
2019-05-25T16:14:07.898Z,21.30
2019-05-25T16:18:28.786Z,20.53
2019-05-25T16:22:50.258Z,20.58
2019-05-25T16:27:11.405Z,20.35
2019-05-25T16:31:33.096Z,20.41
2019-05-25T16:35:57.751Z,21.21
2019-05-25T16:40:16.836Z,21.88
2019-05-25T16:48:54.820Z,24.59
2019-05-25T16:53:15.771Z,26.12
2019-05-25T16:57:36.416Z,28.53
2019-05-25T17:01:57.538Z,30.42
2019-05-25T17:06:17.891Z,29.69
2019-05-25T17:10:38.059Z,30.18
2019-05-25T17:14:59.097Z,29.23
2019-05-25T17:19:20.376Z,27.00
2019-05-25T17:23:40.705Z,28.10
2019-05-25T17:28:00.668Z,28.89
2019-05-25T17:32:21.298Z,28.88
2019-05-25T17:36:42.567Z,28.19
2019-05-25T17:41:02.467Z,27.87
2019-05-25T17:45:22.960Z,26.60
2019-05-25T17:49:43.357Z,25.47
2019-05-25T17:54:03.924Z,24.32
2019-05-25T17:58:24.256Z,23.46
2019-05-25T18:02:45.710Z,22.85
2019-05-25T18:07:06.370Z,22.43
2019-05-25T18:11:27.353Z,21.89
2019-05-25T18:15:47.847Z,21.32
2019-05-25T18:20:11.996Z,21.22
2019-05-25T18:24:32.356Z,21.00
2019-05-25T18:28:52.960Z,20.60
2019-05-25T18:33:13.767Z,20.25
2019-05-25T18:37:33.969Z,20.11
2019-05-25T18:41:54.786Z,19.97
2019-05-25T18:46:15.382Z,19.90
2019-05-25T18:50:35.614Z,19.88
2019-05-25T18:54:56.549Z,19.57
2019-05-25T18:59:17.285Z,19.88
2019-05-25T19:03:37.436Z,19.98
2019-05-25T19:07:57.520Z,19.91
2019-05-25T19:12:18.262Z,19.89
2019-05-25T19:16:39.305Z,19.70
2019-05-25T19:21:00.238Z,20.15
2019-05-25T19:25:32.906Z,19.94
2019-05-25T19:30:03.092Z,19.53
2019-05-25T19:34:19.249Z,19.30
2019-05-25T19:38:40.889Z,19.31
2019-05-25T19:43:03.088Z,19.29
2019-05-25T19:47:23.735Z,19.33
2019-05-25T19:51:44.813Z,19.36
2019-05-25T19:56:05.523Z,19.37
2019-05-25T20:00:26.576Z,19.29
2019-05-25T20:04:47.384Z,19.14
2019-05-25T20:09:08.560Z,18.98
2019-05-25T20:13:35.692Z,18.81
2019-05-25T20:18:51.035Z,18.63
2019-05-25T20:22:43.108Z,18.47
2019-05-25T20:27:10.417Z,18.33
2019-05-25T20:31:38.273Z,18.15
2019-05-25T20:35:59.172Z,18.07
2019-05-25T20:40:19.589Z,17.99
2019-05-25T20:44:40.436Z,17.89
2019-05-25T20:49:00.929Z,17.80
2019-05-25T20:53:21.429Z,17.60
2019-05-25T20:57:41.889Z,17.57
2019-05-25T21:02:03.331Z,17.44
2019-05-25T21:06:24.264Z,17.36
2019-05-25T21:10:44.936Z,17.29
2019-05-25T21:15:06.342Z,17.31
2019-05-25T21:19:26.689Z,17.10
2019-05-25T21:23:48.392Z,16.98
2019-05-25T21:28:09.115Z,17.09
2019-05-25T21:32:30.028Z,17.10
2019-05-25T21:36:50.446Z,17.05
2019-05-25T21:41:10.829Z,17.05
2019-05-25T21:45:37.065Z,16.92
2019-05-25T21:49:59.031Z,16.91
2019-05-25T21:54:20.304Z,16.86
2019-05-25T21:58:41.476Z,16.84
2019-05-25T22:03:02.320Z,16.75
2019-05-25T22:07:23.289Z,16.70
2019-05-25T22:11:44.441Z,16.64
2019-05-25T22:16:05.569Z,16.61
2019-05-25T22:20:26.729Z,16.50
2019-05-25T22:24:47.272Z,16.52
2019-05-25T22:29:16.536Z,16.37
2019-05-25T22:33:37.184Z,16.23
2019-05-25T22:37:58.045Z,16.17
2019-05-25T22:42:18.342Z,16.14
2019-05-25T22:46:39.129Z,16.05
2019-05-25T22:51:00.094Z,15.90
2019-05-25T22:55:20.836Z,15.81
2019-05-25T22:59:41.898Z,15.86
2019-05-25T23:04:02.438Z,15.68
2019-05-25T23:08:23.970Z,15.55
2019-05-25T23:12:44.376Z,15.46
2019-05-25T23:17:04.865Z,15.43
2019-05-25T23:21:25.768Z,15.29
2019-05-25T23:25:46.581Z,14.97
2019-05-25T23:30:07.863Z,15.05
2019-05-25T23:34:28.512Z,14.81
2019-05-25T23:38:48.790Z,14.83
2019-05-25T23:43:09.078Z,14.81
2019-05-25T23:47:29.547Z,14.90
2019-05-25T23:51:50.675Z,14.78
2019-05-25T23:56:11.940Z,14.69
